Sacre-Coeur, Canada
Current Conditions -  °F | °C
As of 1:00 PM on Sunday 21 Dec 2014 (Local Time) from CYYY Reporting Station
Light Snow Light Snow  
Wind Chill:   Ceiling: 1200
Heat Index: 18°   Visibility: 15mi
Dew Point: 12°   Wind: 8mph
Humidity: 79%   Direction: 250°WSW
Pressure: 30.38"   Gusts: NA
Location:  48.43°N, 68.58°W
Report Text: CYYY 211800Z 25007KT 15SM -SN OVC012 M08/M11 A3038 RMK SC8 SLP293
Loading
Personal Weather Stations






























Interactive Weather Map New forecast layout! Learn more

10-Day Weather Forecast

Advertisements
Track Severe Weather on mobile